sensor_id;sensor_type;location;lat;lon;timestamp;P1;durP1;ratioP1;P2;durP2;ratioP2
58472;SDS011;44775;51.564;5.460;2023-04-05T00:01:20;17.30;;;11.25;;
58472;SDS011;44775;51.564;5.460;2023-04-05T00:03:46;20.23;;;10.73;;
58472;SDS011;44775;51.564;5.460;2023-04-05T00:06:11;16.98;;;10.85;;
58472;SDS011;44775;51.564;5.460;2023-04-05T00:08:37;17.50;;;11.55;;
58472;SDS011;44775;51.564;5.460;2023-04-05T00:11:03;21.13;;;11.45;;
58472;SDS011;44775;51.564;5.460;2023-04-05T00:13:28;17.55;;;10.70;;
58472;SDS011;44775;51.564;5.460;2023-04-05T00:15:54;17.17;;;11.82;;
58472;SDS011;44775;51.564;5.460;2023-04-05T00:18:22;17.60;;;11.10;;
58472;SDS011;44775;51.564;5.460;2023-04-05T00:20:48;16.98;;;11.57;;
58472;SDS011;44775;51.564;5.460;2023-04-05T00:23:14;18.23;;;11.73;;
58472;SDS011;44775;51.564;5.460;2023-04-05T00:25:43;18.70;;;12.55;;
58472;SDS011;44775;51.564;5.460;2023-04-05T00:28:09;17.55;;;11.82;;
58472;SDS011;44775;51.564;5.460;2023-04-05T00:30:35;17.85;;;12.20;;
58472;SDS011;44775;51.564;5.460;2023-04-05T00:33:00;18.88;;;11.65;;
58472;SDS011;44775;51.564;5.460;2023-04-05T00:35:26;17.13;;;11.45;;
58472;SDS011;44775;51.564;5.460;2023-04-05T00:37:52;19.48;;;11.57;;
58472;SDS011;44775;51.564;5.460;2023-04-05T00:40:17;18.25;;;11.82;;
58472;SDS011;44775;51.564;5.460;2023-04-05T00:42:42;21.23;;;11.95;;
58472;SDS011;44775;51.564;5.460;2023-04-05T00:45:08;20.63;;;12.55;;
58472;SDS011;44775;51.564;5.460;2023-04-05T00:47:33;17.70;;;11.77;;
58472;SDS011;44775;51.564;5.460;2023-04-05T00:49:59;23.95;;;12.82;;
58472;SDS011;44775;51.564;5.460;2023-04-05T00:52:25;18.48;;;11.60;;
58472;SDS011;44775;51.564;5.460;2023-04-05T00:54:51;21.10;;;12.32;;
58472;SDS011;44775;51.564;5.460;2023-04-05T00:57:17;18.20;;;12.43;;
58472;SDS011;44775;51.564;5.460;2023-04-05T00:59:44;18.23;;;11.75;;
58472;SDS011;44775;51.564;5.460;2023-04-05T01:02:20;18.50;;;12.50;;
58472;SDS011;44775;51.564;5.460;2023-04-05T01:05:03;20.63;;;12.60;;
58472;SDS011;44775;51.564;5.460;2023-04-05T01:07:39;20.25;;;12.75;;
58472;SDS011;44775;51.564;5.460;2023-04-05T01:10:10;21.65;;;13.52;;
58472;SDS011;44775;51.564;5.460;2023-04-05T01:12:37;19.15;;;12.73;;
58472;SDS011;44775;51.564;5.460;2023-04-05T01:15:03;19.40;;;12.85;;
58472;SDS011;44775;51.564;5.460;2023-04-05T01:17:30;20.40;;;12.68;;
58472;SDS011;44775;51.564;5.460;2023-04-05T01:20:01;20.77;;;12.65;;
58472;SDS011;44775;51.564;5.460;2023-04-05T01:22:43;22.25;;;13.07;;
58472;SDS011;44775;51.564;5.460;2023-04-05T01:28:07;19.52;;;12.32;;
58472;SDS011;44775;51.564;5.460;2023-04-05T01:31:07;24.20;;;12.95;;
58472;SDS011;44775;51.564;5.460;2023-04-05T01:36:48;18.60;;;12.43;;
58472;SDS011;44775;51.564;5.460;2023-04-05T01:39:18;19.25;;;12.38;;
58472;SDS011;44775;51.564;5.460;2023-04-05T01:41:45;19.50;;;12.68;;
58472;SDS011;44775;51.564;5.460;2023-04-05T01:44:10;20.55;;;13.18;;
58472;SDS011;44775;51.564;5.460;2023-04-05T01:46:35;20.60;;;12.80;;
58472;SDS011;44775;51.564;5.460;2023-04-05T01:49:01;19.48;;;12.77;;
58472;SDS011;44775;51.564;5.460;2023-04-05T01:51:26;18.98;;;13.15;;
58472;SDS011;44775;51.564;5.460;2023-04-05T01:53:52;21.35;;;13.25;;
58472;SDS011;44775;51.564;5.460;2023-04-05T01:56:17;19.95;;;13.35;;
58472;SDS011;44775;51.564;5.460;2023-04-05T01:58:42;23.08;;;13.10;;
58472;SDS011;44775;51.564;5.460;2023-04-05T02:01:07;20.67;;;12.80;;
58472;SDS011;44775;51.564;5.460;2023-04-05T02:03:33;19.98;;;12.77;;
58472;SDS011;44775;51.564;5.460;2023-04-05T02:05:58;21.13;;;13.38;;
58472;SDS011;44775;51.564;5.460;2023-04-05T02:08:23;20.92;;;13.80;;
58472;SDS011;44775;51.564;5.460;2023-04-05T02:10:51;21.83;;;13.77;;
58472;SDS011;44775;51.564;5.460;2023-04-05T02:13:17;20.00;;;13.57;;
58472;SDS011;44775;51.564;5.460;2023-04-05T02:15:46;20.90;;;14.18;;
58472;SDS011;44775;51.564;5.460;2023-04-05T02:18:14;22.35;;;14.13;;
58472;SDS011;44775;51.564;5.460;2023-04-05T02:20:40;22.48;;;13.85;;
58472;SDS011;44775;51.564;5.460;2023-04-05T02:23:06;21.35;;;13.63;;
58472;SDS011;44775;51.564;5.460;2023-04-05T02:25:32;20.45;;;13.43;;
58472;SDS011;44775;51.564;5.460;2023-04-05T02:27:57;22.40;;;14.35;;
58472;SDS011;44775;51.564;5.460;2023-04-05T02:30:23;22.17;;;14.13;;
58472;SDS011;44775;51.564;5.460;2023-04-05T02:32:48;22.27;;;13.95;;
58472;SDS011;44775;51.564;5.460;2023-04-05T02:35:13;21.70;;;14.23;;
58472;SDS011;44775;51.564;5.460;2023-04-05T02:37:41;23.55;;;14.73;;
58472;SDS011;44775;51.564;5.460;2023-04-05T02:40:06;22.00;;;14.00;;
58472;SDS011;44775;51.564;5.460;2023-04-05T02:42:36;25.00;;;14.88;;
58472;SDS011;44775;51.564;5.460;2023-04-05T02:45:01;20.88;;;14.05;;
58472;SDS011;44775;51.564;5.460;2023-04-05T02:47:27;23.20;;;14.20;;
58472;SDS011;44775;51.564;5.460;2023-04-05T02:49:52;21.23;;;14.00;;
58472;SDS011;44775;51.564;5.460;2023-04-05T02:52:17;25.20;;;14.52;;
58472;SDS011;44775;51.564;5.460;2023-04-05T02:54:42;21.70;;;14.88;;
58472;SDS011;44775;51.564;5.460;2023-04-05T02:57:08;23.42;;;14.20;;
58472;SDS011;44775;51.564;5.460;2023-04-05T02:59:37;23.23;;;15.77;;
58472;SDS011;44775;51.564;5.460;2023-04-05T03:02:03;26.73;;;15.82;;
58472;SDS011;44775;51.564;5.460;2023-04-05T03:04:29;21.45;;;14.70;;
58472;SDS011;44775;51.564;5.460;2023-04-05T03:06:58;23.98;;;15.38;;
58472;SDS011;44775;51.564;5.460;2023-04-05T03:09:23;22.83;;;14.93;;
58472;SDS011;44775;51.564;5.460;2023-04-05T03:11:51;23.58;;;14.77;;
58472;SDS011;44775;51.564;5.460;2023-04-05T03:14:16;23.33;;;15.20;;
58472;SDS011;44775;51.564;5.460;2023-04-05T03:16:42;24.55;;;15.63;;
58472;SDS011;44775;51.564;5.460;2023-04-05T03:19:07;23.92;;;15.43;;
58472;SDS011;44775;51.564;5.460;2023-04-05T03:21:33;29.05;;;14.82;;
58472;SDS011;44775;51.564;5.460;2023-04-05T03:23:58;25.30;;;16.08;;
58472;SDS011;44775;51.564;5.460;2023-04-05T03:26:24;26.20;;;14.80;;
58472;SDS011;44775;51.564;5.460;2023-04-05T03:28:49;27.85;;;15.77;;
58472;SDS011;44775;51.564;5.460;2023-04-05T03:31:15;25.15;;;16.08;;
58472;SDS011;44775;51.564;5.460;2023-04-05T03:33:41;25.83;;;16.55;;
58472;SDS011;44775;51.564;5.460;2023-04-05T03:36:06;28.45;;;16.17;;
58472;SDS011;44775;51.564;5.460;2023-04-05T03:38:32;23.33;;;15.63;;
58472;SDS011;44775;51.564;5.460;2023-04-05T03:40:57;22.77;;;15.98;;
58472;SDS011;44775;51.564;5.460;2023-04-05T03:43:23;26.33;;;16.13;;
58472;SDS011;44775;51.564;5.460;2023-04-05T03:45:48;25.00;;;16.50;;
58472;SDS011;44775;51.564;5.460;2023-04-05T03:48:13;23.98;;;15.68;;
58472;SDS011;44775;51.564;5.460;2023-04-05T03:50:43;22.48;;;14.25;;
58472;SDS011;44775;51.564;5.460;2023-04-05T03:53:09;25.23;;;15.95;;
58472;SDS011;44775;51.564;5.460;2023-04-05T03:55:35;23.63;;;15.52;;
58472;SDS011;44775;51.564;5.460;2023-04-05T03:58:00;27.35;;;15.63;;
58472;SDS011;44775;51.564;5.460;2023-04-05T04:00:25;25.50;;;15.65;;
58472;SDS011;44775;51.564;5.460;2023-04-05T04:02:51;24.67;;;15.68;;
58472;SDS011;44775;51.564;5.460;2023-04-05T04:05:17;26.17;;;15.68;;
58472;SDS011;44775;51.564;5.460;2023-04-05T04:07:42;27.08;;;15.93;;
58472;SDS011;44775;51.564;5.460;2023-04-05T04:10:09;25.02;;;15.77;;
58472;SDS011;44775;51.564;5.460;2023-04-05T04:12:36;28.65;;;17.23;;
58472;SDS011;44775;51.564;5.460;2023-04-05T04:15:02;25.27;;;16.02;;
58472;SDS011;44775;51.564;5.460;2023-04-05T04:17:28;27.13;;;15.77;;
58472;SDS011;44775;51.564;5.460;2023-04-05T04:19:55;26.77;;;16.40;;
58472;SDS011;44775;51.564;5.460;2023-04-05T04:22:22;26.98;;;16.42;;
58472;SDS011;44775;51.564;5.460;2023-04-05T04:27:17;26.77;;;17.02;;
58472;SDS011;44775;51.564;5.460;2023-04-05T04:29:44;24.75;;;15.90;;
58472;SDS011;44775;51.564;5.460;2023-04-05T04:32:15;24.88;;;15.82;;
58472;SDS011;44775;51.564;5.460;2023-04-05T04:34:41;27.45;;;16.52;;
58472;SDS011;44775;51.564;5.460;2023-04-05T04:37:09;29.17;;;18.35;;
58472;SDS011;44775;51.564;5.460;2023-04-05T04:39:41;27.15;;;17.65;;
58472;SDS011;44775;51.564;5.460;2023-04-05T04:42:08;33.22;;;17.30;;
58472;SDS011;44775;51.564;5.460;2023-04-05T04:44:35;28.98;;;16.17;;
58472;SDS011;44775;51.564;5.460;2023-04-05T04:47:01;30.20;;;17.33;;
58472;SDS011;44775;51.564;5.460;2023-04-05T04:49:26;28.95;;;17.38;;
58472;SDS011;44775;51.564;5.460;2023-04-05T04:51:52;26.48;;;18.02;;
58472;SDS011;44775;51.564;5.460;2023-04-05T04:54:17;28.95;;;18.95;;
58472;SDS011;44775;51.564;5.460;2023-04-05T04:56:45;28.85;;;18.13;;
58472;SDS011;44775;51.564;5.460;2023-04-05T04:59:10;27.75;;;17.85;;
58472;SDS011;44775;51.564;5.460;2023-04-05T05:01:36;30.60;;;18.13;;
58472;SDS011;44775;51.564;5.460;2023-04-05T05:04:02;27.13;;;16.63;;
58472;SDS011;44775;51.564;5.460;2023-04-05T05:06:28;26.27;;;17.00;;
58472;SDS011;44775;51.564;5.460;2023-04-05T05:08:53;25.95;;;16.95;;
58472;SDS011;44775;51.564;5.460;2023-04-05T05:11:20;27.90;;;17.45;;
58472;SDS011;44775;51.564;5.460;2023-04-05T05:13:45;29.25;;;17.48;;
58472;SDS011;44775;51.564;5.460;2023-04-05T05:16:10;27.33;;;17.40;;
58472;SDS011;44775;51.564;5.460;2023-04-05T05:18:36;27.73;;;17.67;;
58472;SDS011;44775;51.564;5.460;2023-04-05T05:21:01;30.58;;;17.42;;
58472;SDS011;44775;51.564;5.460;2023-04-05T05:23:27;29.42;;;17.48;;
58472;SDS011;44775;51.564;5.460;2023-04-05T05:25:58;31.63;;;18.23;;
58472;SDS011;44775;51.564;5.460;2023-04-05T05:28:24;29.90;;;18.65;;
58472;SDS011;44775;51.564;5.460;2023-04-05T05:30:51;31.27;;;19.92;;
58472;SDS011;44775;51.564;5.460;2023-04-05T05:33:16;28.77;;;18.55;;
58472;SDS011;44775;51.564;5.460;2023-04-05T05:35:42;31.30;;;18.25;;
58472;SDS011;44775;51.564;5.460;2023-04-05T05:38:07;30.38;;;17.83;;
58472;SDS011;44775;51.564;5.460;2023-04-05T05:40:33;30.17;;;17.83;;
58472;SDS011;44775;51.564;5.460;2023-04-05T05:42:58;32.67;;;18.38;;
58472;SDS011;44775;51.564;5.460;2023-04-05T05:45:23;33.22;;;18.52;;
58472;SDS011;44775;51.564;5.460;2023-04-05T05:47:49;30.15;;;17.33;;
58472;SDS011;44775;51.564;5.460;2023-04-05T05:50:14;30.23;;;18.20;;
58472;SDS011;44775;51.564;5.460;2023-04-05T05:52:41;28.85;;;18.70;;
58472;SDS011;44775;51.564;5.460;2023-04-05T05:55:06;30.25;;;19.27;;
58472;SDS011;44775;51.564;5.460;2023-04-05T05:57:32;33.30;;;19.80;;
58472;SDS011;44775;51.564;5.460;2023-04-05T05:59:57;33.95;;;19.50;;
58472;SDS011;44775;51.564;5.460;2023-04-05T06:02:22;29.67;;;18.88;;
58472;SDS011;44775;51.564;5.460;2023-04-05T06:04:48;30.20;;;18.33;;
58472;SDS011;44775;51.564;5.460;2023-04-05T06:07:13;26.33;;;17.77;;
58472;SDS011;44775;51.564;5.460;2023-04-05T06:09:39;26.42;;;17.23;;
58472;SDS011;44775;51.564;5.460;2023-04-05T06:12:04;28.83;;;18.27;;
58472;SDS011;44775;51.564;5.460;2023-04-05T06:14:30;24.50;;;16.85;;
58472;SDS011;44775;51.564;5.460;2023-04-05T06:16:55;31.08;;;17.77;;
58472;SDS011;44775;51.564;5.460;2023-04-05T06:19:21;29.50;;;18.08;;
58472;SDS011;44775;51.564;5.460;2023-04-05T06:21:46;27.98;;;17.17;;
58472;SDS011;44775;51.564;5.460;2023-04-05T06:24:12;26.98;;;17.05;;
58472;SDS011;44775;51.564;5.460;2023-04-05T06:26:37;24.23;;;16.42;;
58472;SDS011;44775;51.564;5.460;2023-04-05T06:29:02;25.60;;;17.20;;
58472;SDS011;44775;51.564;5.460;2023-04-05T06:31:32;25.35;;;17.17;;
58472;SDS011;44775;51.564;5.460;2023-04-05T06:34:00;24.65;;;16.42;;
58472;SDS011;44775;51.564;5.460;2023-04-05T06:36:25;25.13;;;16.10;;
58472;SDS011;44775;51.564;5.460;2023-04-05T06:38:51;21.83;;;14.48;;
58472;SDS011;44775;51.564;5.460;2023-04-05T06:41:17;23.85;;;15.77;;
58472;SDS011;44775;51.564;5.460;2023-04-05T06:43:42;25.05;;;16.80;;
58472;SDS011;44775;51.564;5.460;2023-04-05T06:46:08;22.77;;;15.73;;
58472;SDS011;44775;51.564;5.460;2023-04-05T06:48:35;22.48;;;15.90;;
58472;SDS011;44775;51.564;5.460;2023-04-05T06:51:01;21.13;;;14.27;;
58472;SDS011;44775;51.564;5.460;2023-04-05T06:53:27;25.13;;;17.05;;
58472;SDS011;44775;51.564;5.460;2023-04-05T06:55:53;24.77;;;16.40;;
58472;SDS011;44775;51.564;5.460;2023-04-05T06:58:20;23.35;;;17.05;;
58472;SDS011;44775;51.564;5.460;2023-04-05T07:00:45;23.63;;;16.13;;
58472;SDS011;44775;51.564;5.460;2023-04-05T07:03:11;22.38;;;15.27;;
58472;SDS011;44775;51.564;5.460;2023-04-05T07:05:36;17.90;;;13.25;;
58472;SDS011;44775;51.564;5.460;2023-04-05T07:08:01;10.60;;;8.05;;
58472;SDS011;44775;51.564;5.460;2023-04-05T07:10:27;18.73;;;13.82;;
58472;SDS011;44775;51.564;5.460;2023-04-05T07:12:52;16.95;;;11.60;;
58472;SDS011;44775;51.564;5.460;2023-04-05T07:15:18;15.20;;;10.65;;
58472;SDS011;44775;51.564;5.460;2023-04-05T07:17:43;22.75;;;15.35;;
58472;SDS011;44775;51.564;5.460;2023-04-05T07:20:08;15.32;;;11.43;;
58472;SDS011;44775;51.564;5.460;2023-04-05T07:22:34;11.35;;;8.25;;
58472;SDS011;44775;51.564;5.460;2023-04-05T07:25:00;18.10;;;13.40;;
58472;SDS011;44775;51.564;5.460;2023-04-05T07:27:25;15.00;;;10.52;;
58472;SDS011;44775;51.564;5.460;2023-04-05T07:29:51;18.02;;;12.73;;
58472;SDS011;44775;51.564;5.460;2023-04-05T07:32:16;19.70;;;14.05;;
58472;SDS011;44775;51.564;5.460;2023-04-05T07:34:41;9.93;;;6.63;;
58472;SDS011;44775;51.564;5.460;2023-04-05T07:37:07;10.10;;;7.18;;
58472;SDS011;44775;51.564;5.460;2023-04-05T07:39:32;10.65;;;8.57;;
58472;SDS011;44775;51.564;5.460;2023-04-05T07:41:58;17.65;;;12.65;;
58472;SDS011;44775;51.564;5.460;2023-04-05T07:44:23;12.05;;;9.73;;
58472;SDS011;44775;51.564;5.460;2023-04-05T07:46:48;17.70;;;10.63;;
58472;SDS011;44775;51.564;5.460;2023-04-05T07:49:13;15.70;;;8.95;;
58472;SDS011;44775;51.564;5.460;2023-04-05T07:51:39;16.13;;;12.27;;
58472;SDS011;44775;51.564;5.460;2023-04-05T07:54:04;11.27;;;7.30;;
58472;SDS011;44775;51.564;5.460;2023-04-05T07:56:30;12.25;;;8.98;;
58472;SDS011;44775;51.564;5.460;2023-04-05T07:58:56;11.63;;;8.07;;
58472;SDS011;44775;51.564;5.460;2023-04-05T08:01:22;11.70;;;7.75;;
58472;SDS011;44775;51.564;5.460;2023-04-05T08:03:51;16.13;;;10.45;;
58472;SDS011;44775;51.564;5.460;2023-04-05T08:06:18;16.00;;;11.93;;
58472;SDS011;44775;51.564;5.460;2023-04-05T08:08:44;12.07;;;7.40;;
58472;SDS011;44775;51.564;5.460;2023-04-05T08:11:10;12.13;;;9.07;;
58472;SDS011;44775;51.564;5.460;2023-04-05T08:13:36;16.67;;;11.70;;
58472;SDS011;44775;51.564;5.460;2023-04-05T08:16:05;15.35;;;11.18;;
58472;SDS011;44775;51.564;5.460;2023-04-05T08:18:34;15.40;;;9.30;;
58472;SDS011;44775;51.564;5.460;2023-04-05T08:20:59;10.57;;;7.80;;
58472;SDS011;44775;51.564;5.460;2023-04-05T08:23:25;12.88;;;7.63;;
58472;SDS011;44775;51.564;5.460;2023-04-05T08:25:51;9.82;;;7.10;;
58472;SDS011;44775;51.564;5.460;2023-04-05T08:28:16;11.45;;;7.95;;
58472;SDS011;44775;51.564;5.460;2023-04-05T08:30:42;12.13;;;8.23;;
58472;SDS011;44775;51.564;5.460;2023-04-05T08:33:09;12.63;;;7.53;;
58472;SDS011;44775;51.564;5.460;2023-04-05T08:35:35;14.52;;;9.93;;
58472;SDS011;44775;51.564;5.460;2023-04-05T08:38:01;16.85;;;11.18;;
58472;SDS011;44775;51.564;5.460;2023-04-05T08:40:30;17.42;;;8.85;;
58472;SDS011;44775;51.564;5.460;2023-04-05T08:45:50;10.02;;;7.70;;
58472;SDS011;44775;51.564;5.460;2023-04-05T08:48:17;13.57;;;8.27;;
58472;SDS011;44775;51.564;5.460;2023-04-05T08:50:48;4.55;;;3.45;;
58472;SDS011;44775;51.564;5.460;2023-04-05T08:53:15;12.35;;;9.50;;
58472;SDS011;44775;51.564;5.460;2023-04-05T08:55:40;11.05;;;6.63;;
58472;SDS011;44775;51.564;5.460;2023-04-05T08:58:06;16.02;;;10.48;;
58472;SDS011;44775;51.564;5.460;2023-04-05T09:00:38;11.85;;;8.45;;
58472;SDS011;44775;51.564;5.460;2023-04-05T09:03:05;9.10;;;6.35;;
58472;SDS011;44775;51.564;5.460;2023-04-05T09:05:32;13.43;;;9.93;;
58472;SDS011;44775;51.564;5.460;2023-04-05T09:08:00;11.93;;;7.53;;
58472;SDS011;44775;51.564;5.460;2023-04-05T09:10:25;10.20;;;8.55;;
58472;SDS011;44775;51.564;5.460;2023-04-05T09:12:53;9.25;;;5.97;;
58472;SDS011;44775;51.564;5.460;2023-04-05T09:15:19;16.27;;;11.88;;
58472;SDS011;44775;51.564;5.460;2023-04-05T09:20:14;16.42;;;10.35;;
58472;SDS011;44775;51.564;5.460;2023-04-05T09:22:43;11.88;;;7.07;;
58472;SDS011;44775;51.564;5.460;2023-04-05T09:25:10;11.75;;;8.10;;
58472;SDS011;44775;51.564;5.460;2023-04-05T09:27:35;14.57;;;10.52;;
58472;SDS011;44775;51.564;5.460;2023-04-05T09:30:21;6.65;;;4.38;;
58472;SDS011;44775;51.564;5.460;2023-04-05T09:32:49;14.25;;;9.00;;
58472;SDS011;44775;51.564;5.460;2023-04-05T09:35:35;12.75;;;7.90;;
58472;SDS011;44775;51.564;5.460;2023-04-05T09:38:01;19.88;;;10.43;;
58472;SDS011;44775;51.564;5.460;2023-04-05T09:40:39;19.63;;;10.45;;
58472;SDS011;44775;51.564;5.460;2023-04-05T09:43:07;23.98;;;11.00;;
58472;SDS011;44775;51.564;5.460;2023-04-05T09:45:37;14.45;;;10.18;;
58472;SDS011;44775;51.564;5.460;2023-04-05T09:48:07;13.98;;;9.60;;
58472;SDS011;44775;51.564;5.460;2023-04-05T09:50:33;15.60;;;10.43;;
58472;SDS011;44775;51.564;5.460;2023-04-05T09:53:06;13.93;;;10.50;;
58472;SDS011;44775;51.564;5.460;2023-04-05T09:55:33;12.98;;;9.80;;
58472;SDS011;44775;51.564;5.460;2023-04-05T09:57:58;11.02;;;8.65;;
58472;SDS011;44775;51.564;5.460;2023-04-05T10:00:25;10.70;;;7.75;;
58472;SDS011;44775;51.564;5.460;2023-04-05T10:02:54;13.27;;;7.68;;
58472;SDS011;44775;51.564;5.460;2023-04-05T10:05:24;10.98;;;7.80;;
58472;SDS011;44775;51.564;5.460;2023-04-05T10:07:51;10.65;;;7.18;;
58472;SDS011;44775;51.564;5.460;2023-04-05T10:10:16;7.85;;;6.00;;
58472;SDS011;44775;51.564;5.460;2023-04-05T10:12:42;9.13;;;7.40;;
58472;SDS011;44775;51.564;5.460;2023-04-05T10:15:09;13.23;;;9.77;;
58472;SDS011;44775;51.564;5.460;2023-04-05T10:17:38;9.63;;;7.15;;
58472;SDS011;44775;51.564;5.460;2023-04-05T10:28:10;12.43;;;8.50;;
58472;SDS011;44775;51.564;5.460;2023-04-05T10:30:39;11.55;;;8.88;;
58472;SDS011;44775;51.564;5.460;2023-04-05T10:36:10;12.05;;;7.90;;
58472;SDS011;44775;51.564;5.460;2023-04-05T10:41:25;8.50;;;6.38;;
58472;SDS011;44775;51.564;5.460;2023-04-05T10:43:50;9.40;;;5.93;;
58472;SDS011;44775;51.564;5.460;2023-04-05T10:46:20;7.32;;;5.10;;
58472;SDS011;44775;51.564;5.460;2023-04-05T10:49:02;11.10;;;8.60;;
58472;SDS011;44775;51.564;5.460;2023-04-05T10:51:35;12.68;;;8.95;;
58472;SDS011;44775;51.564;5.460;2023-04-05T10:54:01;9.60;;;6.40;;
58472;SDS011;44775;51.564;5.460;2023-04-05T10:56:27;13.38;;;7.50;;
58472;SDS011;44775;51.564;5.460;2023-04-05T10:58:53;10.98;;;9.40;;
58472;SDS011;44775;51.564;5.460;2023-04-05T11:01:20;15.82;;;10.43;;
58472;SDS011;44775;51.564;5.460;2023-04-05T11:03:46;21.55;;;13.85;;
58472;SDS011;44775;51.564;5.460;2023-04-05T11:08:48;26.67;;;17.70;;
58472;SDS011;44775;51.564;5.460;2023-04-05T11:11:17;21.50;;;15.13;;
58472;SDS011;44775;51.564;5.460;2023-04-05T11:13:55;14.45;;;10.52;;
58472;SDS011;44775;51.564;5.460;2023-04-05T11:16:23;15.70;;;10.27;;
58472;SDS011;44775;51.564;5.460;2023-04-05T11:19:02;13.27;;;10.05;;
58472;SDS011;44775;51.564;5.460;2023-04-05T11:21:27;18.38;;;13.25;;
58472;SDS011;44775;51.564;5.460;2023-04-05T11:26:52;23.30;;;17.52;;
58472;SDS011;44775;51.564;5.460;2023-04-05T11:29:16;24.88;;;18.50;;
58472;SDS011;44775;51.564;5.460;2023-04-05T11:32:05;25.17;;;17.42;;
58472;SDS011;44775;51.564;5.460;2023-04-05T11:34:35;23.45;;;15.57;;
58472;SDS011;44775;51.564;5.460;2023-04-05T11:37:01;21.67;;;15.63;;
58472;SDS011;44775;51.564;5.460;2023-04-05T11:39:27;19.70;;;15.48;;
58472;SDS011;44775;51.564;5.460;2023-04-05T11:41:54;20.45;;;14.90;;
58472;SDS011;44775;51.564;5.460;2023-04-05T11:44:25;18.73;;;13.80;;
58472;SDS011;44775;51.564;5.460;2023-04-05T11:46:53;17.85;;;13.60;;
58472;SDS011;44775;51.564;5.460;2023-04-05T11:49:26;20.23;;;14.30;;
58472;SDS011;44775;51.564;5.460;2023-04-05T11:51:52;26.55;;;19.85;;
58472;SDS011;44775;51.564;5.460;2023-04-05T11:54:27;27.85;;;22.05;;
58472;SDS011;44775;51.564;5.460;2023-04-05T11:56:56;23.35;;;17.55;;
58472;SDS011;44775;51.564;5.460;2023-04-05T11:59:31;17.55;;;13.50;;
58472;SDS011;44775;51.564;5.460;2023-04-05T12:01:58;23.00;;;16.88;;
58472;SDS011;44775;51.564;5.460;2023-04-05T12:04:25;19.33;;;13.65;;
58472;SDS011;44775;51.564;5.460;2023-04-05T12:07:06;26.13;;;19.10;;
58472;SDS011;44775;51.564;5.460;2023-04-05T12:09:32;29.42;;;19.80;;
58472;SDS011;44775;51.564;5.460;2023-04-05T12:11:57;26.60;;;19.90;;
58472;SDS011;44775;51.564;5.460;2023-04-05T12:14:23;25.10;;;17.45;;
58472;SDS011;44775;51.564;5.460;2023-04-05T12:16:48;28.52;;;21.25;;
58472;SDS011;44775;51.564;5.460;2023-04-05T12:19:14;22.63;;;17.60;;
58472;SDS011;44775;51.564;5.460;2023-04-05T12:21:40;25.38;;;17.88;;
58472;SDS011;44775;51.564;5.460;2023-04-05T12:24:06;26.10;;;19.70;;
58472;SDS011;44775;51.564;5.460;2023-04-05T12:26:33;24.02;;;17.77;;
58472;SDS011;44775;51.564;5.460;2023-04-05T12:28:59;24.10;;;19.27;;
58472;SDS011;44775;51.564;5.460;2023-04-05T12:31:41;31.08;;;21.20;;
58472;SDS011;44775;51.564;5.460;2023-04-05T12:34:08;26.85;;;18.67;;
58472;SDS011;44775;51.564;5.460;2023-04-05T12:36:34;22.60;;;15.88;;
58472;SDS011;44775;51.564;5.460;2023-04-05T12:39:00;21.95;;;15.13;;
58472;SDS011;44775;51.564;5.460;2023-04-05T12:41:30;24.90;;;17.80;;
58472;SDS011;44775;51.564;5.460;2023-04-05T12:43:56;23.33;;;17.80;;
58472;SDS011;44775;51.564;5.460;2023-04-05T12:46:41;23.63;;;17.13;;
58472;SDS011;44775;51.564;5.460;2023-04-05T12:49:11;23.30;;;17.55;;
58472;SDS011;44775;51.564;5.460;2023-04-05T12:51:40;28.90;;;19.08;;
58472;SDS011;44775;51.564;5.460;2023-04-05T12:54:07;27.88;;;18.40;;
58472;SDS011;44775;51.564;5.460;2023-04-05T12:56:37;26.13;;;18.55;;
58472;SDS011;44775;51.564;5.460;2023-04-05T12:59:03;21.08;;;15.70;;
58472;SDS011;44775;51.564;5.460;2023-04-05T13:01:30;23.33;;;16.65;;
58472;SDS011;44775;51.564;5.460;2023-04-05T13:03:57;24.27;;;17.88;;
58472;SDS011;44775;51.564;5.460;2023-04-05T13:06:25;22.70;;;17.38;;
58472;SDS011;44775;51.564;5.460;2023-04-05T13:08:51;22.48;;;17.05;;
58472;SDS011;44775;51.564;5.460;2023-04-05T13:11:16;23.65;;;17.48;;
58472;SDS011;44775;51.564;5.460;2023-04-05T13:13:41;23.30;;;16.60;;
58472;SDS011;44775;51.564;5.460;2023-04-05T13:16:07;15.93;;;11.45;;
58472;SDS011;44775;51.564;5.460;2023-04-05T13:18:32;22.35;;;15.52;;
58472;SDS011;44775;51.564;5.460;2023-04-05T13:20:57;25.10;;;17.55;;
58472;SDS011;44775;51.564;5.460;2023-04-05T13:23:23;24.73;;;17.08;;
58472;SDS011;44775;51.564;5.460;2023-04-05T13:25:48;25.25;;;18.15;;
58472;SDS011;44775;51.564;5.460;2023-04-05T13:28:13;18.83;;;11.38;;
58472;SDS011;44775;51.564;5.460;2023-04-05T13:30:39;15.73;;;11.10;;
58472;SDS011;44775;51.564;5.460;2023-04-05T13:33:04;20.73;;;16.13;;
58472;SDS011;44775;51.564;5.460;2023-04-05T13:35:29;27.35;;;19.60;;
58472;SDS011;44775;51.564;5.460;2023-04-05T13:37:55;15.40;;;11.88;;
58472;SDS011;44775;51.564;5.460;2023-04-05T13:40:20;17.73;;;12.77;;
58472;SDS011;44775;51.564;5.460;2023-04-05T13:42:45;24.38;;;14.20;;
58472;SDS011;44775;51.564;5.460;2023-04-05T13:45:12;24.85;;;18.30;;
58472;SDS011;44775;51.564;5.460;2023-04-05T13:47:37;26.40;;;17.70;;
58472;SDS011;44775;51.564;5.460;2023-04-05T13:50:03;24.10;;;17.67;;
58472;SDS011;44775;51.564;5.460;2023-04-05T13:52:28;25.10;;;19.30;;
58472;SDS011;44775;51.564;5.460;2023-04-05T13:54:54;19.58;;;15.35;;
58472;SDS011;44775;51.564;5.460;2023-04-05T13:57:19;23.90;;;18.52;;
58472;SDS011;44775;51.564;5.460;2023-04-05T13:59:45;20.33;;;15.95;;
58472;SDS011;44775;51.564;5.460;2023-04-05T14:02:10;23.42;;;17.77;;
58472;SDS011;44775;51.564;5.460;2023-04-05T14:04:36;21.08;;;15.93;;
58472;SDS011;44775;51.564;5.460;2023-04-05T14:07:02;18.05;;;13.38;;
58472;SDS011;44775;51.564;5.460;2023-04-05T14:09:28;21.05;;;14.95;;
58472;SDS011;44775;51.564;5.460;2023-04-05T14:11:54;23.17;;;17.42;;
58472;SDS011;44775;51.564;5.460;2023-04-05T14:14:21;24.90;;;17.95;;
58472;SDS011;44775;51.564;5.460;2023-04-05T14:16:46;26.42;;;18.95;;
58472;SDS011;44775;51.564;5.460;2023-04-05T14:19:12;23.13;;;17.58;;
58472;SDS011;44775;51.564;5.460;2023-04-05T14:21:37;21.70;;;16.45;;
58472;SDS011;44775;51.564;5.460;2023-04-05T14:24:02;19.83;;;15.23;;
58472;SDS011;44775;51.564;5.460;2023-04-05T14:26:28;25.52;;;18.85;;
58472;SDS011;44775;51.564;5.460;2023-04-05T14:28:53;16.02;;;12.52;;
58472;SDS011;44775;51.564;5.460;2023-04-05T14:31:18;21.98;;;16.52;;
58472;SDS011;44775;51.564;5.460;2023-04-05T14:33:44;12.65;;;9.27;;
58472;SDS011;44775;51.564;5.460;2023-04-05T14:36:09;24.48;;;16.95;;
58472;SDS011;44775;51.564;5.460;2023-04-05T14:38:35;20.13;;;15.13;;
58472;SDS011;44775;51.564;5.460;2023-04-05T14:41:00;18.05;;;13.82;;
58472;SDS011;44775;51.564;5.460;2023-04-05T14:43:26;26.25;;;17.95;;
58472;SDS011;44775;51.564;5.460;2023-04-05T14:45:51;18.10;;;14.07;;
58472;SDS011;44775;51.564;5.460;2023-04-05T14:48:16;19.52;;;13.63;;
58472;SDS011;44775;51.564;5.460;2023-04-05T14:50:42;11.27;;;8.60;;
58472;SDS011;44775;51.564;5.460;2023-04-05T14:53:07;19.83;;;15.27;;
58472;SDS011;44775;51.564;5.460;2023-04-05T14:55:32;26.05;;;18.33;;